Wetterstation Vordersexau
Wetterdaten: Woche 29.08.11 - 04.09.11 (KW35)
Datum Zeit Temp. A. Feuchte A. Luftdruck Regen Wind Richtung Taupunkt Windchill Windben
29.08.2011 00:00 12,0 C 81 % 1017,0 hPa 0,0 l/m 0,0 km/h O-NO 8,8 C 12,0 C 0,0 km/h
29.08.2011 01:00 11,4 C 83 % 1017,0 hPa 0,0 l/m 0,0 km/h SO 8,6 C 11,4 C 0,0 km/h
29.08.2011 02:00 10,7 C 84 % 1016,6 hPa 0,0 l/m 0,0 km/h O-SO 8,1 C 10,7 C 0,0 km/h
29.08.2011 03:00 9,9 C 85 % 1016,2 hPa 0,0 l/m 0,0 km/h O-SO 7,5 C 9,9 C 0,0 km/h
29.08.2011 04:00 10,3 C 85 % 1016,1 hPa 0,0 l/m 0,0 km/h NO 7,9 C 10,3 C 0,0 km/h
29.08.2011 05:00 10,0 C 85 % 1015,7 hPa 0,0 l/m 0,0 km/h SO 7,6 C 10,0 C 0,0 km/h
29.08.2011 06:00 10,3 C 85 % 1016,0 hPa 0,0 l/m 0,0 km/h O-NO 7,9 C 10,3 C 0,0 km/h
29.08.2011 07:00 11,1 C 84 % 1016,0 hPa 0,0 l/m 0,0 km/h O-NO 8,5 C 11,1 C 0,0 km/h
29.08.2011 08:00 13,4 C 84 % 1016,6 hPa 0,0 l/m 0,0 km/h NO 10,8 C 13,4 C 0,0 km/h
29.08.2011 09:00 18,5 C 71 % 1016,7 hPa 0,0 l/m 0,0 km/h W-NW 13,1 C 18,5 C 0,0 km/h
29.08.2011 10:00 22,4 C 57 % 1016,8 hPa 0,0 l/m 0,0 km/h S-SO 13,5 C 22,4 C 0,0 km/h
29.08.2011 11:00 26,3 C 49 % 1016,8 hPa 0,0 l/m 4,5 km/h N-NO 14,7 C 26,3 C 2,5 km/h
29.08.2011 12:00 23,2 C 46 % 1016,7 hPa 0,0 l/m 18,8 km/h W 10,9 C 20,5 C 10,4 km/h
29.08.2011 13:00 25,9 C 43 % 1016,2 hPa 0,0 l/m 1,9 km/h N 12,3 C 25,9 C 1,1 km/h
29.08.2011 14:00 22,5 C 46 % 1015,8 hPa 0,0 l/m 0,0 km/h O-NO 10,3 C 22,5 C 0,0 km/h
29.08.2011 15:00 26,7 C 40 % 1015,6 hPa 0,0 l/m 5,2 km/h NW 12,0 C 26,7 C 2,9 km/h
29.08.2011 16:00 30,6 C 32 % 1015,4 hPa 0,0 l/m 0,0 km/h NW 12,0 C 30,6 C 0,0 km/h
29.08.2011 17:00 28,8 C 32 % 1015,2 hPa 0,0 l/m 13,0 km/h N-NO 10,4 C 28,1 C 7,2 km/h
29.08.2011 18:00 24,0 C 40 % 1015,2 hPa 0,0 l/m 0,0 km/h N-NO 9,6 C 24,0 C 0,0 km/h
29.08.2011 19:00 19,5 C 52 % 1015,5 hPa 0,0 l/m 1,9 km/h NO 9,4 C 19,5 C 1,1 km/h
29.08.2011 20:00 16,8 C 61 % 1015,8 hPa 0,0 l/m 0,0 km/h N-NO 9,2 C 16,8 C 0,0 km/h
29.08.2011 21:00 15,4 C 65 % 1016,4 hPa 0,0 l/m 0,0 km/h N-NO 8,9 C 15,4 C 0,0 km/h
29.08.2011 22:00 13,9 C 74 % 1016,5 hPa 0,0 l/m 0,0 km/h S-SO 9,3 C 13,9 C 0,0 km/h
29.08.2011 23:00 13,6 C 76 % 1016,4 hPa 0,0 l/m 0,0 km/h O-SO 9,4 C 13,6 C 0,0 km/h
30.08.2011 00:00 11,8 C 80 % 1016,2 hPa 0,0 l/m 0,0 km/h O-SO 8,5 C 11,8 C 0,0 km/h
30.08.2011 01:00 10,6 C 82 % 1015,9 hPa 0,0 l/m 0,0 km/h S-SO 7,7 C 10,6 C 0,0 km/h
30.08.2011 02:00 9,9 C 84 % 1015,4 hPa 0,0 l/m 7,8 km/h O-NO 7,3 C 8,9 C 4,3 km/h
30.08.2011 03:00 9,8 C 85 % 1015,2 hPa 0,0 l/m 0,0 km/h O-NO 7,4 C 9,8 C 0,0 km/h
30.08.2011 04:00 10,9 C 84 % 1015,3 hPa 0,0 l/m 0,0 km/h N-NO 8,3 C 10,9 C 0,0 km/h
30.08.2011 05:00 10,6 C 84 % 1015,2 hPa 0,0 l/m 0,0 km/h NO 8,0 C 10,6 C 0,0 km/h
30.08.2011 06:00 9,9 C 85 % 1015,2 hPa 0,0 l/m 0,0 km/h O-NO 7,5 C 9,9 C 0,0 km/h
30.08.2011 07:00 9,8 C 85 % 1015,1 hPa 0,0 l/m 0,0 km/h O-SO 7,4 C 9,8 C 0,0 km/h
30.08.2011 08:00 12,0 C 84 % 1015,2 hPa 0,0 l/m 0,0 km/h S-SW 9,4 C 12,0 C 0,0 km/h
30.08.2011 09:00 19,3 C 64 % 1015,5 hPa 0,0 l/m 0,0 km/h SW 12,3 C 19,3 C 0,0 km/h
30.08.2011 10:00 21,1 C 58 % 1015,4 hPa 0,0 l/m 1,9 km/h N-NO 12,5 C 21,1 C 1,1 km/h
30.08.2011 11:00 25,1 C 47 % 1015,2 hPa 0,0 l/m 0,0 km/h W-SW 13,0 C 25,1 C 0,0 km/h
30.08.2011 12:00 24,9 C 40 % 1014,8 hPa 0,0 l/m 1,3 km/h W 10,4 C 24,9 C 0,7 km/h
30.08.2011 13:00 24,9 C 39 % 1014,5 hPa 0,0 l/m 1,9 km/h W-NW 10,0 C 24,9 C 1,1 km/h
30.08.2011 14:00 25,1 C 37 % 1014,0 hPa 0,0 l/m 3,9 km/h SW 9,4 C 25,1 C 2,2 km/h
30.08.2011 15:00 27,6 C 33 % 1013,5 hPa 0,0 l/m 0,0 km/h N 9,9 C 27,6 C 0,0 km/h
30.08.2011 16:00 30,4 C 29 % 1013,2 hPa 0,0 l/m 0,0 km/h NO 10,3 C 30,4 C 0,0 km/h
30.08.2011 17:00 29,5 C 28 % 1012,9 hPa 0,0 l/m 3,2 km/h N-NO 9,1 C 29,5 C 1,8 km/h
30.08.2011 18:00 29,8 C 28 % 1012,7 hPa 0,0 l/m 5,8 km/h N-NO 9,3 C 29,8 C 3,2 km/h
30.08.2011 19:00 24,3 C 36 % 1012,7 hPa 0,0 l/m 0,0 km/h N-NO 8,3 C 24,3 C 0,0 km/h
30.08.2011 20:00 15,5 C 59 % 1013,0 hPa 0,0 l/m 0,0 km/h O 7,5 C 15,5 C 0,0 km/h
30.08.2011 21:00 12,6 C 70 % 1013,3 hPa 0,0 l/m 0,0 km/h O-NO 7,3 C 12,6 C 0,0 km/h
30.08.2011 22:00 11,9 C 76 % 1013,3 hPa 0,0 l/m 0,0 km/h O-NO 7,8 C 11,9 C 0,0 km/h
30.08.2011 23:00 11,1 C 79 % 1012,7 hPa 0,0 l/m 0,0 km/h S-SO 7,6 C 11,1 C 0,0 km/h
31.08.2011 00:00 11,3 C 78 % 1012,7 hPa 0,0 l/m 0,0 km/h SO 7,6 C 11,3 C 0,0 km/h
31.08.2011 01:00 10,4 C 80 % 1012,3 hPa 0,0 l/m 0,0 km/h O 7,1 C 10,4 C 0,0 km/h
31.08.2011 02:00 9,4 C 82 % 1011,8 hPa 0,0 l/m 0,0 km/h O-SO 6,5 C 9,4 C 0,0 km/h
31.08.2011 03:00 8,9 C 84 % 1011,8 hPa 0,0 l/m 0,0 km/h NO 6,3 C 8,9 C 0,0 km/h
31.08.2011 04:00 9,1 C 84 % 1011,9 hPa 0,0 l/m 0,0 km/h NO 6,5 C 9,1 C 0,0 km/h
31.08.2011 05:00 8,1 C 85 % 1011,4 hPa 0,0 l/m 0,0 km/h NO 5,7 C 8,1 C 0,0 km/h
31.08.2011 06:00 7,6 C 85 % 1011,8 hPa 0,0 l/m 0,0 km/h N-NO 5,2 C 7,6 C 0,0 km/h
31.08.2011 07:00 8,2 C 85 % 1012,2 hPa 0,0 l/m 0,0 km/h N-NO 5,8 C 8,2 C 0,0 km/h
31.08.2011 08:00 10,7 C 85 % 1012,6 hPa 0,0 l/m 0,0 km/h O-SO 8,3 C 10,7 C 0,0 km/h
31.08.2011 09:00 17,9 C 68 % 1012,7 hPa 0,0 l/m 0,0 km/h W 11,9 C 17,9 C 0,0 km/h
31.08.2011 10:00 21,4 C 57 % 1012,9 hPa 0,0 l/m 0,0 km/h W 12,5 C 21,4 C 0,0 km/h
31.08.2011 11:00 24,4 C 48 % 1012,8 hPa 0,0 l/m 0,0 km/h S-SW 12,7 C 24,4 C 0,0 km/h
31.08.2011 12:00 25,5 C 48 % 1012,7 hPa 0,0 l/m 21,4 km/h S-SW 13,7 C 23,2 C 11,9 km/h
31.08.2011 13:00 25,4 C 46 % 1012,3 hPa 0,0 l/m 0,0 km/h NW 12,9 C 25,4 C 0,0 km/h
31.08.2011 14:00 26,1 C 43 % 1011,9 hPa 0,0 l/m 0,0 km/h W-SW 12,5 C 26,1 C 0,0 km/h
31.08.2011 15:00 30,4 C 35 % 1011,5 hPa 0,0 l/m 1,9 km/h N-NO 13,2 C 30,4 C 1,1 km/h
31.08.2011 16:00 33,6 C 30 % 1011,3 hPa 0,0 l/m 0,0 km/h W-NW 13,6 C 33,6 C 0,0 km/h
31.08.2011 17:00 30,2 C 34 % 1011,2 hPa 0,0 l/m 0,0 km/h W-NW 12,6 C 30,2 C 0,0 km/h
31.08.2011 18:00 27,3 C 41 % 1011,1 hPa 0,0 l/m 0,0 km/h W-NW 12,9 C 27,3 C 0,0 km/h
31.08.2011 19:00 24,1 C 49 % 1010,8 hPa 0,0 l/m 0,0 km/h W 12,7 C 24,1 C 0,0 km/h
31.08.2011 20:00 16,9 C 66 % 1011,0 hPa 0,0 l/m 0,0 km/h W-NW 10,5 C 16,9 C 0,0 km/h
31.08.2011 21:00 16,2 C 74 % 1011,7 hPa 0,0 l/m 0,0 km/h W-NW 11,6 C 16,2 C 0,0 km/h
31.08.2011 22:00 15,4 C 76 % 1011,4 hPa 0,0 l/m 0,0 km/h W-NW 11,2 C 15,4 C 0,0 km/h
31.08.2011 23:00 15,5 C 79 % 1011,7 hPa 0,0 l/m 0,0 km/h W-NW 11,9 C 15,5 C 0,0 km/h
01.09.2011 00:00 14,9 C 79 % 1011,5 hPa 0,0 l/m 0,0 km/h W-NW 11,3 C 14,9 C 0,0 km/h
01.09.2011 01:00 12,9 C 82 % 1011,6 hPa 0,0 l/m 0,0 km/h W-NW 9,9 C 12,9 C 0,0 km/h
01.09.2011 02:00 12,9 C 83 % 1011,1 hPa 0,0 l/m 0,0 km/h NO 10,1 C 12,9 C 0,0 km/h
01.09.2011 03:00 13,0 C 84 % 1011,6 hPa 0,0 l/m 0,0 km/h NO 10,4 C 13,0 C 0,0 km/h
01.09.2011 04:00 12,9 C 84 % 1011,8 hPa 0,0 l/m 0,0 km/h NO 10,3 C 12,9 C 0,0 km/h
01.09.2011 05:00 13,4 C 84 % 1012,5 hPa 0,0 l/m 0,0 km/h O-NO 10,8 C 13,4 C 0,0 km/h
01.09.2011 06:00 13,3 C 85 % 1012,7 hPa 0,0 l/m 0,0 km/h O-SO 10,8 C 13,3 C 0,0 km/h
01.09.2011 07:00 13,3 C 85 % 1012,6 hPa 0,0 l/m 0,0 km/h SO 10,8 C 13,3 C 0,0 km/h
01.09.2011 08:00 14,5 C 84 % 1012,7 hPa 0,0 l/m 3,2 km/h SO 11,8 C 14,5 C 1,8 km/h
01.09.2011 09:00 16,2 C 81 % 1012,8 hPa 0,0 l/m 0,0 km/h W 12,9 C 16,2 C 0,0 km/h
01.09.2011 10:00 18,7 C 76 % 1013,4 hPa 0,0 l/m 0,0 km/h W 14,4 C 18,7 C 0,0 km/h
01.09.2011 11:00 20,9 C 68 % 1013,3 hPa 0,0 l/m 0,0 km/h N-NW 14,8 C 20,9 C 0,0 km/h
01.09.2011 12:00 25,1 C 57 % 1013,4 hPa 0,0 l/m 0,0 km/h O 16,0 C 25,1 C 0,0 km/h
01.09.2011 13:00 27,6 C 53 % 1012,9 hPa 0,0 l/m 0,0 km/h N-NW 17,1 C 27,6 C 0,0 km/h
01.09.2011 14:00 29,3 C 47 % 1012,4 hPa 0,0 l/m 1,9 km/h O-NO 16,8 C 29,3 C 1,1 km/h
01.09.2011 15:00 32,9 C 39 % 1012,0 hPa 0,0 l/m 0,0 km/h W-NW 17,1 C 32,9 C 0,0 km/h
01.09.2011 16:00 34,2 C 36 % 1011,4 hPa 0,0 l/m 0,0 km/h W 17,0 C 34,2 C 0,0 km/h
01.09.2011 17:00 31,2 C 38 % 1011,2 hPa 0,0 l/m 0,0 km/h W 15,2 C 31,2 C 0,0 km/h
01.09.2011 18:00 30,5 C 39 % 1011,3 hPa 0,0 l/m 0,0 km/h SW 15,0 C 30,5 C 0,0 km/h
01.09.2011 19:00 22,9 C 62 % 1011,3 hPa 0,0 l/m 0,0 km/h SO 15,2 C 22,9 C 0,0 km/h
01.09.2011 20:00 20,5 C 70 % 1011,4 hPa 0,0 l/m 0,0 km/h SO 14,8 C 20,5 C 0,0 km/h
01.09.2011 21:00 19,4 C 74 % 1011,8 hPa 0,0 l/m 0,0 km/h NO 14,6 C 19,4 C 0,0 km/h
01.09.2011 22:00 18,6 C 76 % 1011,7 hPa 0,0 l/m 0,0 km/h NO 14,3 C 18,6 C 0,0 km/h
01.09.2011 23:00 17,6 C 78 % 1012,0 hPa 0,0 l/m 0,0 km/h NO 13,7 C 17,6 C 0,0 km/h
02.09.2011 00:00 17,3 C 81 % 1011,8 hPa 0,0 l/m 0,0 km/h NO 14,0 C 17,3 C 0,0 km/h
02.09.2011 01:00 15,8 C 82 % 1011,6 hPa 0,0 l/m 0,0 km/h O-NO 12,7 C 15,8 C 0,0 km/h
02.09.2011 02:00 15,8 C 84 % 1011,9 hPa 0,0 l/m 0,0 km/h SO 13,1 C 15,8 C 0,0 km/h
02.09.2011 03:00 15,6 C 84 % 1011,4 hPa 0,0 l/m 0,0 km/h O-NO 12,9 C 15,6 C 0,0 km/h
02.09.2011 04:00 14,9 C 84 % 1011,7 hPa 0,0 l/m 0,0 km/h O-NO 12,2 C 14,9 C 0,0 km/h
02.09.2011 05:00 14,8 C 84 % 1011,9 hPa 0,0 l/m 0,0 km/h NO 12,1 C 14,8 C 0,0 km/h
02.09.2011 06:00 14,9 C 84 % 1012,3 hPa 0,0 l/m 0,0 km/h O-SO 12,2 C 14,9 C 0,0 km/h
02.09.2011 07:00 15,6 C 84 % 1012,5 hPa 0,0 l/m 0,0 km/h O-NO 12,9 C 15,6 C 0,0 km/h
02.09.2011 08:00 16,3 C 84 % 1012,7 hPa 0,0 l/m 0,0 km/h SO 13,6 C 16,3 C 0,0 km/h
02.09.2011 09:00 18,3 C 83 % 1012,7 hPa 0,0 l/m 0,0 km/h O 15,4 C 18,3 C 0,0 km/h
02.09.2011 10:00 22,9 C 75 % 1012,8 hPa 0,0 l/m 0,0 km/h W-SW 18,2 C 22,9 C 0,0 km/h
02.09.2011 11:00 30,5 C 54 % 1012,8 hPa 0,0 l/m 0,0 km/h SW 20,1 C 30,5 C 0,0 km/h
02.09.2011 12:00 26,4 C 59 % 1012,4 hPa 0,0 l/m 0,0 km/h NW 17,7 C 26,4 C 0,0 km/h
02.09.2011 13:00 28,9 C 56 % 1012,4 hPa 0,0 l/m 1,9 km/h S-SW 19,2 C 28,9 C 1,1 km/h
02.09.2011 14:00 30,9 C 48 % 1012,1 hPa 0,0 l/m 0,0 km/h W-NW 18,6 C 30,9 C 0,0 km/h
02.09.2011 15:00 32,8 C 43 % 1011,3 hPa 0,0 l/m 0,0 km/h N-NO 18,5 C 32,8 C 0,0 km/h
02.09.2011 16:00 24,6 C 62 % 1011,5 hPa 0,0 l/m 1,9 km/h N-NO 16,8 C 24,6 C 1,1 km/h
02.09.2011 17:00 30,3 C 52 % 1011,5 hPa 0,0 l/m 0,0 km/h NO 19,3 C 30,3 C 0,0 km/h
02.09.2011 18:00 32,6 C 51 % 1011,6 hPa 0,0 l/m 0,0 km/h O 21,1 C 32,6 C 0,0 km/h
02.09.2011 19:00 25,9 C 66 % 1011,4 hPa 0,0 l/m 0,0 km/h SO 19,0 C 25,9 C 0,0 km/h
02.09.2011 20:00 20,9 C 80 % 1012,2 hPa 0,0 l/m 0,0 km/h SO 17,3 C 20,9 C 0,0 km/h
02.09.2011 21:00 19,7 C 82 % 1012,5 hPa 0,0 l/m 0,0 km/h S-SO 16,5 C 19,7 C 0,0 km/h
02.09.2011 22:00 18,6 C 84 % 1012,3 hPa 0,0 l/m 0,0 km/h S-SO 15,8 C 18,6 C 0,0 km/h
02.09.2011 23:00 18,4 C 83 % 1012,3 hPa 0,0 l/m 0,0 km/h O 15,5 C 18,4 C 0,0 km/h
03.09.2011 00:00 17,8 C 84 % 1012,1 hPa 0,0 l/m 0,0 km/h O 15,1 C 17,8 C 0,0 km/h
03.09.2011 01:00 17,4 C 84 % 1012,3 hPa 0,0 l/m 8,4 km/h O 14,7 C 16,4 C 4,7 km/h
03.09.2011 02:00 17,0 C 84 % 1012,4 hPa 0,0 l/m 0,0 km/h O-NO 14,3 C 17,0 C 0,0 km/h
03.09.2011 03:00 16,3 C 84 % 1012,1 hPa 0,0 l/m 0,0 km/h SO 13,6 C 16,3 C 0,0 km/h
03.09.2011 04:00 15,8 C 83 % 1011,9 hPa 0,0 l/m 0,0 km/h NO 12,9 C 15,8 C 0,0 km/h
03.09.2011 05:00 15,3 C 83 % 1011,7 hPa 0,0 l/m 0,0 km/h SO 12,4 C 15,3 C 0,0 km/h
03.09.2011 06:00 14,6 C 83 % 1011,9 hPa 0,0 l/m 0,0 km/h O-NO 11,7 C 14,6 C 0,0 km/h
03.09.2011 07:00 14,9 C 81 % 1011,9 hPa 0,0 l/m 0,0 km/h SO 11,7 C 14,9 C 0,0 km/h
03.09.2011 08:00 17,3 C 80 % 1011,6 hPa 0,0 l/m 0,0 km/h W-SW 13,8 C 17,3 C 0,0 km/h
03.09.2011 09:00 26,0 C 68 % 1011,6 hPa 0,0 l/m 2,6 km/h W 19,6 C 26,0 C 1,4 km/h
03.09.2011 10:00 28,1 C 58 % 1011,5 hPa 0,0 l/m 3,2 km/h W 19,0 C 28,1 C 1,8 km/h
03.09.2011 11:00 30,9 C 52 % 1011,7 hPa 0,0 l/m 0,0 km/h N-NO 19,9 C 30,9 C 0,0 km/h
03.09.2011 12:00 31,3 C 52 % 1011,3 hPa 0,0 l/m 7,8 km/h W-NW 20,2 C 31,2 C 4,3 km/h
03.09.2011 13:00 32,1 C 50 % 1010,9 hPa 0,0 l/m 7,1 km/h W-SW 20,3 C 32,1 C 4,0 km/h
03.09.2011 14:00 32,4 C 49 % 1010,5 hPa 0,0 l/m 2,6 km/h N-NO 20,3 C 32,4 C 1,4 km/h
03.09.2011 15:00 34,3 C 43 % 1009,9 hPa 0,0 l/m 20,1 km/h NW 19,9 C 34,3 C 11,2 km/h
03.09.2011 16:00 37,6 C 38 % 1009,2 hPa 0,0 l/m 0,0 km/h N-NO 20,8 C 37,6 C 0,0 km/h
03.09.2011 17:00 36,9 C 39 % 1008,7 hPa 0,0 l/m 0,0 km/h NW 20,6 C 36,9 C 0,0 km/h
03.09.2011 18:00 30,8 C 50 % 1008,5 hPa 0,0 l/m 0,0 km/h W-NW 19,1 C 30,8 C 0,0 km/h
03.09.2011 19:00 26,8 C 63 % 1008,6 hPa 0,0 l/m 0,0 km/h NW 19,1 C 26,8 C 0,0 km/h
03.09.2011 20:00 24,5 C 73 % 1008,8 hPa 0,0 l/m 0,0 km/h NO 19,3 C 24,5 C 0,0 km/h
03.09.2011 21:00 23,1 C 77 % 1009,6 hPa 0,0 l/m 0,0 km/h W-SW 18,8 C 23,1 C 0,0 km/h
03.09.2011 22:00 21,1 C 80 % 1011,3 hPa 0,0 l/m 25,3 km/h S 17,5 C 16,8 C 14,0 km/h
03.09.2011 23:00 19,2 C 83 % 1012,0 hPa 0,0 l/m 18,8 km/h SO 16,2 C 15,4 C 10,4 km/h
04.09.2011 00:00 18,9 C 84 % 1011,4 hPa 0,0 l/m 0,0 km/h SO 16,1 C 18,9 C 0,0 km/h
04.09.2011 01:00 18,6 C 83 % 1011,4 hPa 0,0 l/m 0,0 km/h NO 15,7 C 18,6 C 0,0 km/h
04.09.2011 02:00 18,4 C 83 % 1011,0 hPa 0,0 l/m 0,0 km/h SO 15,5 C 18,4 C 0,0 km/h
04.09.2011 03:00 18,4 C 82 % 1010,4 hPa 0,0 l/m 0,0 km/h S-SO 15,3 C 18,4 C 0,0 km/h
04.09.2011 04:00 17,6 C 82 % 1010,1 hPa 0,0 l/m 8,4 km/h NO 14,5 C 16,7 C 4,7 km/h
04.09.2011 05:00 17,0 C 81 % 1010,4 hPa 0,0 l/m 0,0 km/h SO 13,7 C 17,0 C 0,0 km/h
04.09.2011 06:00 16,9 C 80 % 1010,4 hPa 0,0 l/m 0,0 km/h S-SO 13,4 C 16,9 C 0,0 km/h
04.09.2011 07:00 17,4 C 79 % 1010,3 hPa 0,0 l/m 0,0 km/h O-SO 13,7 C 17,4 C 0,0 km/h
04.09.2011 08:00 18,8 C 78 % 1010,7 hPa 0,0 l/m 0,0 km/h SO 14,9 C 18,8 C 0,0 km/h
04.09.2011 09:00 21,4 C 83 % 1010,7 hPa 0,0 l/m 0,0 km/h S-SO 18,4 C 21,4 C 0,0 km/h
04.09.2011 10:00 22,8 C 80 % 1010,7 hPa 0,0 l/m 0,0 km/h S 19,2 C 22,8 C 0,0 km/h
04.09.2011 11:00 24,1 C 77 % 1010,7 hPa 0,0 l/m 0,0 km/h W 19,8 C 24,1 C 0,0 km/h
04.09.2011 12:00 27,3 C 66 % 1010,3 hPa 0,0 l/m 10,4 km/h W 20,4 C 26,6 C 5,8 km/h
04.09.2011 13:00 26,9 C 63 % 1010,5 hPa 0,0 l/m 11,7 km/h W-SW 19,2 C 26,0 C 6,5 km/h
04.09.2011 14:00 25,7 C 67 % 1010,6 hPa 0,0 l/m 23,3 km/h SW 19,1 C 23,3 C 13,0 km/h
04.09.2011 15:00 22,9 C 74 % 1010,3 hPa 0,0 l/m 13,6 km/h S 18,0 C 21,0 C 7,6 km/h
04.09.2011 16:00 21,2 C 82 % 1010,4 hPa 0,0 l/m 0,0 km/h SW 18,0 C 21,2 C 0,0 km/h
04.09.2011 17:00 20,2 C 83 % 1010,4 hPa 0,0 l/m 0,0 km/h S-SW 17,2 C 20,2 C 0,0 km/h
04.09.2011 18:00 20,8 C 83 % 1010,2 hPa 0,0 l/m 0,0 km/h SW 17,8 C 20,8 C 0,0 km/h
04.09.2011 19:00 19,6 C 83 % 1010,5 hPa 0,0 l/m 0,0 km/h S-SW 16,6 C 19,6 C 0,0 km/h
04.09.2011 20:00 18,8 C 84 % 1011,0 hPa 0,0 l/m 0,0 km/h S-SW 16,0 C 18,8 C 0,0 km/h
04.09.2011 21:00 18,4 C 83 % 1011,3 hPa 0,0 l/m 0,0 km/h S-SW 15,5 C 18,4 C 0,0 km/h
04.09.2011 22:00 18,3 C 82 % 1011,1 hPa 0,0 l/m 0,0 km/h SW 15,2 C 18,3 C 0,0 km/h
04.09.2011 23:00 18,4 C 81 % 1011,3 hPa 0,0 l/m 0,0 km/h SW 15,1 C 18,4 C 0,0 km/h
Min-Datum _ 31.08.11 30.08.11 03.09.11 - 29.08.11 - 31.08.11 31.08.11 29.08.11
_ Min-Zeit 06:30 17:30 18:30 - 00:30 - 06:30 06:30 00:30
Minimum _ 7,6 C 28 % 1008,5 hPa - 0,0 km/h - 5,2 C 7,6 C 0,0 km/h
Max-Datum _ 03.09.11 29.08.11 29.08.11 29.08.11 03.09.11 - 02.09.11 03.09.11 03.09.11
_ Max-Zeit 16:30 03:30 00:30 00:30 22:30 - 18:30 16:30 22:30
Maximum _ 37,6 C 85 % 1017,0 hPa 0,0 l/m 25,3 km/h
S
- 21,1 C 37,6 C 14,0 km/h
S
Durchschnitt _ 20,1 C 68 % 1012,6 hPa #0,0 l/m 1,6 km/h SO 13,2 C 19,9 C 0,9 km/h
www.sexauwetter.de